sensor_id;sensor_type;location;lat;lon;timestamp;P1;durP1;ratioP1;P2;durP2;ratioP2
6485;SDS011;3276;48.490;9.222;2022-12-17T00:00:23;88.22;;;41.08;;
6485;SDS011;3276;48.490;9.222;2022-12-17T00:03:08;84.65;;;39.00;;
6485;SDS011;3276;48.490;9.222;2022-12-17T00:05:53;101.32;;;71.47;;
6485;SDS011;3276;48.490;9.222;2022-12-17T00:08:37;88.68;;;40.08;;
6485;SDS011;3276;48.490;9.222;2022-12-17T00:11:20;91.72;;;37.03;;
6485;SDS011;3276;48.490;9.222;2022-12-17T00:14:04;91.72;;;43.78;;
6485;SDS011;3276;48.490;9.222;2022-12-17T00:16:49;101.10;;;57.17;;
6485;SDS011;3276;48.490;9.222;2022-12-17T00:19:33;95.05;;;45.58;;
6485;SDS011;3276;48.490;9.222;2022-12-17T00:22:16;114.25;;;80.38;;
6485;SDS011;3276;48.490;9.222;2022-12-17T00:25:01;93.93;;;45.13;;
6485;SDS011;3276;48.490;9.222;2022-12-17T00:27:45;84.00;;;45.13;;
6485;SDS011;3276;48.490;9.222;2022-12-17T00:30:29;87.63;;;45.17;;
6485;SDS011;3276;48.490;9.222;2022-12-17T00:33:13;108.90;;;68.18;;
6485;SDS011;3276;48.490;9.222;2022-12-17T00:35:57;86.35;;;44.35;;
6485;SDS011;3276;48.490;9.222;2022-12-17T00:38:41;88.20;;;49.60;;
6485;SDS011;3276;48.490;9.222;2022-12-17T00:41:25;86.13;;;43.92;;
6485;SDS011;3276;48.490;9.222;2022-12-17T00:44:09;106.78;;;74.72;;
6485;SDS011;3276;48.490;9.222;2022-12-17T00:46:53;91.22;;;46.63;;
6485;SDS011;3276;48.490;9.222;2022-12-17T00:49:37;111.18;;;85.68;;
6485;SDS011;3276;48.490;9.222;2022-12-17T00:52:21;112.00;;;96.85;;
6485;SDS011;3276;48.490;9.222;2022-12-17T00:55:05;136.98;;;121.57;;
6485;SDS011;3276;48.490;9.222;2022-12-17T00:57:53;103.88;;;77.07;;
6485;SDS011;3276;48.490;9.222;2022-12-17T01:00:38;107.20;;;91.53;;
6485;SDS011;3276;48.490;9.222;2022-12-17T01:03:23;94.93;;;52.33;;
6485;SDS011;3276;48.490;9.222;2022-12-17T01:06:07;89.53;;;49.75;;
6485;SDS011;3276;48.490;9.222;2022-12-17T01:08:51;114.18;;;81.40;;
6485;SDS011;3276;48.490;9.222;2022-12-17T01:11:35;89.97;;;53.67;;
6485;SDS011;3276;48.490;9.222;2022-12-17T01:14:20;93.68;;;57.20;;
6485;SDS011;3276;48.490;9.222;2022-12-17T01:17:04;116.95;;;83.15;;
6485;SDS011;3276;48.490;9.222;2022-12-17T01:19:48;94.82;;;60.42;;
6485;SDS011;3276;48.490;9.222;2022-12-17T01:22:32;105.97;;;69.10;;
6485;SDS011;3276;48.490;9.222;2022-12-17T01:25:16;107.55;;;81.22;;
6485;SDS011;3276;48.490;9.222;2022-12-17T01:28:00;88.70;;;57.38;;
6485;SDS011;3276;48.490;9.222;2022-12-17T01:30:44;120.57;;;108.25;;
6485;SDS011;3276;48.490;9.222;2022-12-17T01:33:28;91.40;;;50.72;;
6485;SDS011;3276;48.490;9.222;2022-12-17T01:36:12;92.40;;;54.17;;
6485;SDS011;3276;48.490;9.222;2022-12-17T01:38:56;88.50;;;43.45;;
6485;SDS011;3276;48.490;9.222;2022-12-17T01:41:40;99.20;;;80.72;;
6485;SDS011;3276;48.490;9.222;2022-12-17T01:44:39;142.00;;;128.52;;
6485;SDS011;3276;48.490;9.222;2022-12-17T01:47:41;94.22;;;59.28;;
6485;SDS011;3276;48.490;9.222;2022-12-17T01:50:37;102.80;;;82.68;;
6485;SDS011;3276;48.490;9.222;2022-12-17T01:53:26;105.75;;;68.53;;
6485;SDS011;3276;48.490;9.222;2022-12-17T01:56:13;124.85;;;111.55;;
6485;SDS011;3276;48.490;9.222;2022-12-17T01:58:58;105.60;;;80.72;;
6485;SDS011;3276;48.490;9.222;2022-12-17T02:01:42;111.68;;;88.30;;
6485;SDS011;3276;48.490;9.222;2022-12-17T02:04:26;195.63;;;179.55;;
6485;SDS011;3276;48.490;9.222;2022-12-17T02:10:39;92.75;;;51.85;;
6485;SDS011;3276;48.490;9.222;2022-12-17T02:13:40;116.97;;;104.63;;
6485;SDS011;3276;48.490;9.222;2022-12-17T02:16:30;182.27;;;166.48;;
6485;SDS011;3276;48.490;9.222;2022-12-17T02:22:55;104.75;;;73.28;;
6485;SDS011;3276;48.490;9.222;2022-12-17T02:28:33;102.93;;;89.97;;
6485;SDS011;3276;48.490;9.222;2022-12-17T02:31:20;101.75;;;81.10;;
6485;SDS011;3276;48.490;9.222;2022-12-17T02:34:06;81.07;;;44.55;;
6485;SDS011;3276;48.490;9.222;2022-12-17T02:36:50;106.15;;;84.22;;
6485;SDS011;3276;48.490;9.222;2022-12-17T02:39:34;124.00;;;110.93;;
6485;SDS011;3276;48.490;9.222;2022-12-17T02:42:18;138.93;;;126.15;;
6485;SDS011;3276;48.490;9.222;2022-12-17T02:45:04;131.98;;;119.20;;
6485;SDS011;3276;48.490;9.222;2022-12-17T02:47:49;111.00;;;86.18;;
6485;SDS011;3276;48.490;9.222;2022-12-17T02:50:34;94.53;;;59.72;;
6485;SDS011;3276;48.490;9.222;2022-12-17T02:53:20;106.75;;;92.68;;
6485;SDS011;3276;48.490;9.222;2022-12-17T02:56:04;124.07;;;111.93;;
6485;SDS011;3276;48.490;9.222;2022-12-17T02:58:55;117.03;;;103.88;;
6485;SDS011;3276;48.490;9.222;2022-12-17T03:01:39;129.02;;;115.68;;
6485;SDS011;3276;48.490;9.222;2022-12-17T03:04:23;123.47;;;111.20;;
6485;SDS011;3276;48.490;9.222;2022-12-17T03:07:07;85.38;;;44.50;;
6485;SDS011;3276;48.490;9.222;2022-12-17T03:09:51;86.28;;;60.15;;
6485;SDS011;3276;48.490;9.222;2022-12-17T03:12:35;112.38;;;93.82;;
6485;SDS011;3276;48.490;9.222;2022-12-17T03:15:20;101.93;;;76.68;;
6485;SDS011;3276;48.490;9.222;2022-12-17T03:18:04;93.30;;;68.82;;
6485;SDS011;3276;48.490;9.222;2022-12-17T03:20:51;100.07;;;76.43;;
6485;SDS011;3276;48.490;9.222;2022-12-17T03:23:35;100.10;;;69.93;;
6485;SDS011;3276;48.490;9.222;2022-12-17T03:26:19;101.43;;;81.13;;
6485;SDS011;3276;48.490;9.222;2022-12-17T03:29:04;127.80;;;115.53;;
6485;SDS011;3276;48.490;9.222;2022-12-17T03:31:48;91.93;;;51.75;;
6485;SDS011;3276;48.490;9.222;2022-12-17T03:34:34;79.00;;;46.20;;
6485;SDS011;3276;48.490;9.222;2022-12-17T03:37:18;96.82;;;68.80;;
6485;SDS011;3276;48.490;9.222;2022-12-17T03:40:02;87.80;;;52.63;;
6485;SDS011;3276;48.490;9.222;2022-12-17T03:42:46;92.32;;;48.47;;
6485;SDS011;3276;48.490;9.222;2022-12-17T03:45:30;104.22;;;79.80;;
6485;SDS011;3276;48.490;9.222;2022-12-17T03:48:14;133.70;;;120.20;;
6485;SDS011;3276;48.490;9.222;2022-12-17T03:50:59;96.30;;;72.85;;
6485;SDS011;3276;48.490;9.222;2022-12-17T03:53:44;89.82;;;56.08;;
6485;SDS011;3276;48.490;9.222;2022-12-17T03:56:29;102.22;;;67.82;;
6485;SDS011;3276;48.490;9.222;2022-12-17T03:59:13;105.95;;;94.75;;
6485;SDS011;3276;48.490;9.222;2022-12-17T04:01:57;85.80;;;47.42;;
6485;SDS011;3276;48.490;9.222;2022-12-17T04:04:42;94.90;;;54.10;;
6485;SDS011;3276;48.490;9.222;2022-12-17T04:07:26;106.40;;;95.13;;
6485;SDS011;3276;48.490;9.222;2022-12-17T04:10:11;94.25;;;67.18;;
6485;SDS011;3276;48.490;9.222;2022-12-17T04:12:55;139.05;;;126.65;;
6485;SDS011;3276;48.490;9.222;2022-12-17T04:15:39;101.60;;;85.57;;
6485;SDS011;3276;48.490;9.222;2022-12-17T04:18:23;98.03;;;78.65;;
6485;SDS011;3276;48.490;9.222;2022-12-17T04:21:07;95.00;;;70.90;;
6485;SDS011;3276;48.490;9.222;2022-12-17T04:23:51;92.40;;;62.08;;
6485;SDS011;3276;48.490;9.222;2022-12-17T04:26:35;120.80;;;108.90;;
6485;SDS011;3276;48.490;9.222;2022-12-17T04:29:20;88.20;;;54.20;;
6485;SDS011;3276;48.490;9.222;2022-12-17T04:32:03;89.72;;;70.97;;
6485;SDS011;3276;48.490;9.222;2022-12-17T04:34:47;92.93;;;63.63;;
6485;SDS011;3276;48.490;9.222;2022-12-17T04:37:31;98.55;;;63.78;;
6485;SDS011;3276;48.490;9.222;2022-12-17T04:40:16;87.70;;;55.42;;
6485;SDS011;3276;48.490;9.222;2022-12-17T04:43:06;102.25;;;90.68;;
6485;SDS011;3276;48.490;9.222;2022-12-17T04:45:53;95.32;;;62.45;;
6485;SDS011;3276;48.490;9.222;2022-12-17T04:48:37;108.40;;;92.55;;
6485;SDS011;3276;48.490;9.222;2022-12-17T04:51:21;144.95;;;131.35;;
6485;SDS011;3276;48.490;9.222;2022-12-17T04:54:05;99.38;;;77.13;;
6485;SDS011;3276;48.490;9.222;2022-12-17T04:56:49;100.82;;;71.63;;
6485;SDS011;3276;48.490;9.222;2022-12-17T04:59:33;102.50;;;78.70;;
6485;SDS011;3276;48.490;9.222;2022-12-17T05:02:17;93.28;;;64.43;;
6485;SDS011;3276;48.490;9.222;2022-12-17T05:05:01;93.45;;;61.63;;
6485;SDS011;3276;48.490;9.222;2022-12-17T05:07:45;90.63;;;65.80;;
6485;SDS011;3276;48.490;9.222;2022-12-17T05:10:29;91.65;;;64.10;;
6485;SDS011;3276;48.490;9.222;2022-12-17T05:13:13;89.03;;;57.92;;
6485;SDS011;3276;48.490;9.222;2022-12-17T05:15:57;83.30;;;46.72;;
6485;SDS011;3276;48.490;9.222;2022-12-17T05:18:41;96.25;;;75.13;;
6485;SDS011;3276;48.490;9.222;2022-12-17T05:21:25;93.55;;;67.82;;
6485;SDS011;3276;48.490;9.222;2022-12-17T05:24:09;159.27;;;146.32;;
6485;SDS011;3276;48.490;9.222;2022-12-17T05:26:53;161.75;;;147.32;;
6485;SDS011;3276;48.490;9.222;2022-12-17T05:29:37;102.35;;;81.47;;
6485;SDS011;3276;48.490;9.222;2022-12-17T05:32:21;95.00;;;59.88;;
6485;SDS011;3276;48.490;9.222;2022-12-17T05:35:06;93.72;;;63.35;;
6485;SDS011;3276;48.490;9.222;2022-12-17T05:37:50;91.20;;;60.78;;
6485;SDS011;3276;48.490;9.222;2022-12-17T05:40:34;94.60;;;64.53;;
6485;SDS011;3276;48.490;9.222;2022-12-17T05:43:18;104.63;;;81.07;;
6485;SDS011;3276;48.490;9.222;2022-12-17T05:46:02;100.88;;;67.82;;
6485;SDS011;3276;48.490;9.222;2022-12-17T05:48:47;98.85;;;53.97;;
6485;SDS011;3276;48.490;9.222;2022-12-17T05:51:34;95.63;;;69.43;;
6485;SDS011;3276;48.490;9.222;2022-12-17T05:54:18;89.40;;;56.53;;
6485;SDS011;3276;48.490;9.222;2022-12-17T05:57:02;83.30;;;47.53;;
6485;SDS011;3276;48.490;9.222;2022-12-17T05:59:46;90.38;;;56.38;;
6485;SDS011;3276;48.490;9.222;2022-12-17T06:02:30;90.22;;;54.45;;
6485;SDS011;3276;48.490;9.222;2022-12-17T06:05:14;97.25;;;62.88;;
6485;SDS011;3276;48.490;9.222;2022-12-17T06:08:03;86.18;;;48.38;;
6485;SDS011;3276;48.490;9.222;2022-12-17T06:10:48;86.22;;;55.78;;
6485;SDS011;3276;48.490;9.222;2022-12-17T06:13:32;92.82;;;68.07;;
6485;SDS011;3276;48.490;9.222;2022-12-17T06:16:16;98.18;;;79.55;;
6485;SDS011;3276;48.490;9.222;2022-12-17T06:19:00;87.43;;;57.78;;
6485;SDS011;3276;48.490;9.222;2022-12-17T06:21:44;86.38;;;48.13;;
6485;SDS011;3276;48.490;9.222;2022-12-17T06:24:28;88.22;;;56.42;;
6485;SDS011;3276;48.490;9.222;2022-12-17T06:27:12;88.90;;;67.38;;
6485;SDS011;3276;48.490;9.222;2022-12-17T06:29:56;86.85;;;41.42;;
6485;SDS011;3276;48.490;9.222;2022-12-17T06:32:40;88.20;;;49.08;;
6485;SDS011;3276;48.490;9.222;2022-12-17T06:35:24;82.97;;;38.40;;
6485;SDS011;3276;48.490;9.222;2022-12-17T06:38:11;87.35;;;51.38;;
6485;SDS011;3276;48.490;9.222;2022-12-17T06:40:58;82.95;;;34.88;;
6485;SDS011;3276;48.490;9.222;2022-12-17T06:43:43;83.68;;;42.20;;
6485;SDS011;3276;48.490;9.222;2022-12-17T06:46:30;89.63;;;47.72;;
6485;SDS011;3276;48.490;9.222;2022-12-17T06:49:14;78.68;;;37.42;;
6485;SDS011;3276;48.490;9.222;2022-12-17T06:51:58;93.60;;;58.63;;
6485;SDS011;3276;48.490;9.222;2022-12-17T06:54:42;82.63;;;42.78;;
6485;SDS011;3276;48.490;9.222;2022-12-17T06:57:26;83.57;;;33.70;;
6485;SDS011;3276;48.490;9.222;2022-12-17T07:00:15;100.05;;;80.60;;
6485;SDS011;3276;48.490;9.222;2022-12-17T07:02:59;79.90;;;36.10;;
6485;SDS011;3276;48.490;9.222;2022-12-17T07:05:43;91.50;;;43.50;;
6485;SDS011;3276;48.490;9.222;2022-12-17T07:08:27;96.22;;;64.50;;
6485;SDS011;3276;48.490;9.222;2022-12-17T07:11:11;96.50;;;62.97;;
6485;SDS011;3276;48.490;9.222;2022-12-17T07:13:55;96.43;;;72.78;;
6485;SDS011;3276;48.490;9.222;2022-12-17T07:16:39;90.53;;;47.42;;
6485;SDS011;3276;48.490;9.222;2022-12-17T07:19:23;81.72;;;48.05;;
6485;SDS011;3276;48.490;9.222;2022-12-17T07:22:07;87.95;;;45.08;;
6485;SDS011;3276;48.490;9.222;2022-12-17T07:24:51;92.38;;;59.42;;
6485;SDS011;3276;48.490;9.222;2022-12-17T07:27:35;88.78;;;51.97;;
6485;SDS011;3276;48.490;9.222;2022-12-17T07:30:19;101.97;;;80.80;;
6485;SDS011;3276;48.490;9.222;2022-12-17T07:33:05;100.47;;;74.00;;
6485;SDS011;3276;48.490;9.222;2022-12-17T07:35:53;98.75;;;57.78;;
6485;SDS011;3276;48.490;9.222;2022-12-17T07:38:38;96.85;;;64.25;;
6485;SDS011;3276;48.490;9.222;2022-12-17T07:41:22;95.68;;;50.60;;
6485;SDS011;3276;48.490;9.222;2022-12-17T07:44:07;97.82;;;76.38;;
6485;SDS011;3276;48.490;9.222;2022-12-17T07:46:51;103.50;;;73.75;;
6485;SDS011;3276;48.490;9.222;2022-12-17T07:49:35;120.07;;;107.70;;
6485;SDS011;3276;48.490;9.222;2022-12-17T07:52:19;134.85;;;121.45;;
6485;SDS011;3276;48.490;9.222;2022-12-17T07:55:04;100.38;;;71.10;;
6485;SDS011;3276;48.490;9.222;2022-12-17T07:57:56;143.48;;;131.07;;
6485;SDS011;3276;48.490;9.222;2022-12-17T08:00:41;95.65;;;52.78;;
6485;SDS011;3276;48.490;9.222;2022-12-17T08:03:25;125.28;;;112.75;;
6485;SDS011;3276;48.490;9.222;2022-12-17T08:06:09;89.03;;;44.13;;
6485;SDS011;3276;48.490;9.222;2022-12-17T08:08:53;90.68;;;43.70;;
6485;SDS011;3276;48.490;9.222;2022-12-17T08:11:37;100.97;;;80.07;;
6485;SDS011;3276;48.490;9.222;2022-12-17T08:14:21;103.65;;;83.97;;
6485;SDS011;3276;48.490;9.222;2022-12-17T08:17:05;103.18;;;81.43;;
6485;SDS011;3276;48.490;9.222;2022-12-17T08:19:49;100.50;;;57.40;;
6485;SDS011;3276;48.490;9.222;2022-12-17T08:22:33;103.65;;;77.63;;
6485;SDS011;3276;48.490;9.222;2022-12-17T08:25:17;95.47;;;58.90;;
6485;SDS011;3276;48.490;9.222;2022-12-17T08:28:01;95.80;;;59.72;;
6485;SDS011;3276;48.490;9.222;2022-12-17T08:30:48;94.63;;;48.25;;
6485;SDS011;3276;48.490;9.222;2022-12-17T08:33:47;91.93;;;52.72;;
6485;SDS011;3276;48.490;9.222;2022-12-17T08:36:31;100.63;;;68.35;;
6485;SDS011;3276;48.490;9.222;2022-12-17T08:39:15;86.70;;;47.45;;
6485;SDS011;3276;48.490;9.222;2022-12-17T08:41:59;93.18;;;42.67;;
6485;SDS011;3276;48.490;9.222;2022-12-17T08:44:43;98.07;;;56.05;;
6485;SDS011;3276;48.490;9.222;2022-12-17T08:47:27;91.18;;;50.13;;
6485;SDS011;3276;48.490;9.222;2022-12-17T08:50:11;90.03;;;41.13;;
6485;SDS011;3276;48.490;9.222;2022-12-17T08:52:56;100.53;;;52.75;;
6485;SDS011;3276;48.490;9.222;2022-12-17T08:55:45;94.65;;;45.22;;
6485;SDS011;3276;48.490;9.222;2022-12-17T08:58:29;91.47;;;46.00;;
6485;SDS011;3276;48.490;9.222;2022-12-17T09:01:13;89.88;;;44.50;;
6485;SDS011;3276;48.490;9.222;2022-12-17T09:03:57;90.95;;;45.03;;
6485;SDS011;3276;48.490;9.222;2022-12-17T09:06:42;100.13;;;68.05;;
6485;SDS011;3276;48.490;9.222;2022-12-17T09:09:26;97.50;;;38.17;;
6485;SDS011;3276;48.490;9.222;2022-12-17T09:12:10;142.95;;;128.85;;
6485;SDS011;3276;48.490;9.222;2022-12-17T09:14:54;94.35;;;44.88;;
6485;SDS011;3276;48.490;9.222;2022-12-17T09:17:38;93.55;;;50.88;;
6485;SDS011;3276;48.490;9.222;2022-12-17T09:20:22;92.47;;;42.78;;
6485;SDS011;3276;48.490;9.222;2022-12-17T09:23:07;97.72;;;46.97;;
6485;SDS011;3276;48.490;9.222;2022-12-17T09:25:55;99.25;;;52.05;;
6485;SDS011;3276;48.490;9.222;2022-12-17T09:28:40;103.38;;;54.28;;
6485;SDS011;3276;48.490;9.222;2022-12-17T09:31:24;97.60;;;45.03;;
6485;SDS011;3276;48.490;9.222;2022-12-17T09:34:09;93.32;;;40.25;;
6485;SDS011;3276;48.490;9.222;2022-12-17T09:36:53;99.75;;;62.20;;
6485;SDS011;3276;48.490;9.222;2022-12-17T09:39:37;90.28;;;34.17;;
6485;SDS011;3276;48.490;9.222;2022-12-17T09:42:33;88.75;;;38.83;;
6485;SDS011;3276;48.490;9.222;2022-12-17T09:45:26;88.38;;;35.85;;
6485;SDS011;3276;48.490;9.222;2022-12-17T09:51:32;85.40;;;32.97;;
6485;SDS011;3276;48.490;9.222;2022-12-17T09:54:37;90.03;;;49.30;;
6485;SDS011;3276;48.490;9.222;2022-12-17T09:57:27;123.82;;;105.70;;
6485;SDS011;3276;48.490;9.222;2022-12-17T10:00:17;94.10;;;46.13;;
6485;SDS011;3276;48.490;9.222;2022-12-17T10:03:07;87.00;;;37.00;;
6485;SDS011;3276;48.490;9.222;2022-12-17T10:05:55;94.50;;;41.88;;
6485;SDS011;3276;48.490;9.222;2022-12-17T10:08:39;94.68;;;48.53;;
6485;SDS011;3276;48.490;9.222;2022-12-17T10:11:28;100.82;;;56.45;;
6485;SDS011;3276;48.490;9.222;2022-12-17T10:14:20;94.30;;;46.30;;
6485;SDS011;3276;48.490;9.222;2022-12-17T10:17:14;87.85;;;44.95;;
6485;SDS011;3276;48.490;9.222;2022-12-17T10:19:59;84.28;;;34.55;;
6485;SDS011;3276;48.490;9.222;2022-12-17T10:22:46;88.88;;;34.40;;
6485;SDS011;3276;48.490;9.222;2022-12-17T10:25:32;86.97;;;40.42;;
6485;SDS011;3276;48.490;9.222;2022-12-17T10:28:18;87.35;;;46.92;;
6485;SDS011;3276;48.490;9.222;2022-12-17T10:31:14;94.22;;;54.72;;
6485;SDS011;3276;48.490;9.222;2022-12-17T10:34:00;93.35;;;65.07;;
6485;SDS011;3276;48.490;9.222;2022-12-17T10:36:45;96.10;;;48.65;;
6485;SDS011;3276;48.490;9.222;2022-12-17T10:39:33;88.32;;;41.42;;
6485;SDS011;3276;48.490;9.222;2022-12-17T10:42:26;95.78;;;43.40;;
6485;SDS011;3276;48.490;9.222;2022-12-17T10:48:19;93.47;;;52.13;;
6485;SDS011;3276;48.490;9.222;2022-12-17T10:54:08;100.07;;;64.93;;
6485;SDS011;3276;48.490;9.222;2022-12-17T10:57:04;98.82;;;44.17;;
6485;SDS011;3276;48.490;9.222;2022-12-17T10:59:48;94.80;;;49.30;;
6485;SDS011;3276;48.490;9.222;2022-12-17T11:02:34;87.70;;;38.80;;
6485;SDS011;3276;48.490;9.222;2022-12-17T11:05:24;96.38;;;44.33;;
6485;SDS011;3276;48.490;9.222;2022-12-17T11:08:12;94.55;;;48.05;;
6485;SDS011;3276;48.490;9.222;2022-12-17T11:10:59;98.78;;;48.33;;
6485;SDS011;3276;48.490;9.222;2022-12-17T11:13:46;111.15;;;67.10;;
6485;SDS011;3276;48.490;9.222;2022-12-17T11:16:35;109.63;;;66.85;;
6485;SDS011;3276;48.490;9.222;2022-12-17T11:19:51;149.20;;;131.98;;
6485;SDS011;3276;48.490;9.222;2022-12-17T11:22:50;112.85;;;66.68;;
6485;SDS011;3276;48.490;9.222;2022-12-17T11:25:53;105.22;;;68.32;;
6485;SDS011;3276;48.490;9.222;2022-12-17T11:28:58;119.50;;;75.90;;
6485;SDS011;3276;48.490;9.222;2022-12-17T11:31:59;113.90;;;58.50;;
6485;SDS011;3276;48.490;9.222;2022-12-17T11:40:46;109.18;;;84.38;;
6485;SDS011;3276;48.490;9.222;2022-12-17T11:43:52;95.03;;;48.08;;
6485;SDS011;3276;48.490;9.222;2022-12-17T11:49:46;99.85;;;50.42;;
6485;SDS011;3276;48.490;9.222;2022-12-17T11:52:46;102.65;;;52.17;;
6485;SDS011;3276;48.490;9.222;2022-12-17T11:56:03;108.70;;;62.53;;
6485;SDS011;3276;48.490;9.222;2022-12-17T11:59:30;107.85;;;72.75;;
6485;SDS011;3276;48.490;9.222;2022-12-17T12:05:51;139.48;;;123.03;;
6485;SDS011;3276;48.490;9.222;2022-12-17T12:24:06;109.82;;;59.50;;
6485;SDS011;3276;48.490;9.222;2022-12-17T12:27:54;115.15;;;66.18;;
6485;SDS011;3276;48.490;9.222;2022-12-17T12:30:29;104.40;;;49.25;;
6485;SDS011;3276;48.490;9.222;2022-12-17T12:33:48;116.63;;;55.70;;
6485;SDS011;3276;48.490;9.222;2022-12-17T12:36:35;117.07;;;62.13;;
6485;SDS011;3276;48.490;9.222;2022-12-17T12:39:27;104.57;;;50.50;;
6485;SDS011;3276;48.490;9.222;2022-12-17T12:42:41;107.55;;;55.67;;
6485;SDS011;3276;48.490;9.222;2022-12-17T12:48:47;133.90;;;116.40;;
6485;SDS011;3276;48.490;9.222;2022-12-17T12:51:53;109.90;;;50.97;;
6485;SDS011;3276;48.490;9.222;2022-12-17T12:57:29;115.65;;;49.75;;
6485;SDS011;3276;48.490;9.222;2022-12-17T13:00:27;110.63;;;45.42;;
6485;SDS011;3276;48.490;9.222;2022-12-17T13:03:18;119.57;;;55.03;;
6485;SDS011;3276;48.490;9.222;2022-12-17T13:06:06;119.03;;;56.35;;
6485;SDS011;3276;48.490;9.222;2022-12-17T13:08:32;162.30;;;139.80;;
6485;SDS011;3276;48.490;9.222;2022-12-17T13:11:07;111.97;;;53.13;;
6485;SDS011;3276;48.490;9.222;2022-12-17T13:13:35;114.50;;;51.08;;
6485;SDS011;3276;48.490;9.222;2022-12-17T13:19:01;110.30;;;50.30;;
6485;SDS011;3276;48.490;9.222;2022-12-17T13:21:28;110.68;;;52.03;;
6485;SDS011;3276;48.490;9.222;2022-12-17T13:23:55;135.27;;;96.18;;
6485;SDS011;3276;48.490;9.222;2022-12-17T13:26:24;132.00;;;79.38;;
6485;SDS011;3276;48.490;9.222;2022-12-17T13:31:24;138.57;;;61.47;;
6485;SDS011;3276;48.490;9.222;2022-12-17T13:34:10;136.57;;;111.10;;
6485;SDS011;3276;48.490;9.222;2022-12-17T13:39:35;124.00;;;78.13;;
6485;SDS011;3276;48.490;9.222;2022-12-17T13:42:28;123.18;;;61.38;;
6485;SDS011;3276;48.490;9.222;2022-12-17T13:44:56;113.47;;;60.25;;
6485;SDS011;3276;48.490;9.222;2022-12-17T13:47:24;138.95;;;89.72;;
6485;SDS011;3276;48.490;9.222;2022-12-17T13:49:52;128.18;;;72.00;;
6485;SDS011;3276;48.490;9.222;2022-12-17T13:52:22;144.90;;;82.75;;
6485;SDS011;3276;48.490;9.222;2022-12-17T13:54:49;127.65;;;62.03;;
6485;SDS011;3276;48.490;9.222;2022-12-17T13:57:19;186.47;;;166.03;;
6485;SDS011;3276;48.490;9.222;2022-12-17T13:59:53;139.95;;;82.40;;
6485;SDS011;3276;48.490;9.222;2022-12-17T14:02:24;135.63;;;63.90;;
6485;SDS011;3276;48.490;9.222;2022-12-17T14:04:53;123.90;;;57.00;;
6485;SDS011;3276;48.490;9.222;2022-12-17T14:07:21;129.52;;;63.92;;
6485;SDS011;3276;48.490;9.222;2022-12-17T14:09:47;160.70;;;134.75;;
6485;SDS011;3276;48.490;9.222;2022-12-17T14:12:13;136.00;;;73.37;;
6485;SDS011;3276;48.490;9.222;2022-12-17T14:14:59;134.65;;;76.75;;
6485;SDS011;3276;48.490;9.222;2022-12-17T14:20:06;142.40;;;84.65;;
6485;SDS011;3276;48.490;9.222;2022-12-17T14:22:38;133.70;;;71.95;;
6485;SDS011;3276;48.490;9.222;2022-12-17T14:25:13;143.65;;;88.50;;
6485;SDS011;3276;48.490;9.222;2022-12-17T14:27:40;141.48;;;80.22;;
6485;SDS011;3276;48.490;9.222;2022-12-17T14:30:34;144.95;;;76.22;;
6485;SDS011;3276;48.490;9.222;2022-12-17T14:33:23;139.73;;;84.22;;
6485;SDS011;3276;48.490;9.222;2022-12-17T14:35:52;128.52;;;69.53;;
6485;SDS011;3276;48.490;9.222;2022-12-17T14:38:19;145.63;;;96.35;;
6485;SDS011;3276;48.490;9.222;2022-12-17T14:40:45;151.52;;;82.03;;
6485;SDS011;3276;48.490;9.222;2022-12-17T14:43:11;148.57;;;104.43;;
6485;SDS011;3276;48.490;9.222;2022-12-17T14:45:38;169.43;;;148.90;;
6485;SDS011;3276;48.490;9.222;2022-12-17T14:48:36;150.85;;;86.40;;
6485;SDS011;3276;48.490;9.222;2022-12-17T14:51:22;137.85;;;86.68;;
6485;SDS011;3276;48.490;9.222;2022-12-17T14:53:51;341.40;;;310.27;;
6485;SDS011;3276;48.490;9.222;2022-12-17T14:56:21;196.60;;;170.17;;
6485;SDS011;3276;48.490;9.222;2022-12-17T14:58:47;263.48;;;236.80;;
6485;SDS011;3276;48.490;9.222;2022-12-17T15:01:13;171.70;;;112.57;;
6485;SDS011;3276;48.490;9.222;2022-12-17T15:03:40;182.13;;;136.65;;
6485;SDS011;3276;48.490;9.222;2022-12-17T15:06:14;192.00;;;152.50;;
6485;SDS011;3276;48.490;9.222;2022-12-17T15:08:42;282.77;;;255.40;;
6485;SDS011;3276;48.490;9.222;2022-12-17T15:11:11;177.35;;;143.48;;
6485;SDS011;3276;48.490;9.222;2022-12-17T15:13:38;218.63;;;194.57;;
6485;SDS011;3276;48.490;9.222;2022-12-17T15:16:04;169.13;;;119.03;;
6485;SDS011;3276;48.490;9.222;2022-12-17T15:18:30;153.57;;;95.65;;
6485;SDS011;3276;48.490;9.222;2022-12-17T15:20:56;162.20;;;104.80;;
6485;SDS011;3276;48.490;9.222;2022-12-17T15:23:21;159.43;;;99.00;;
6485;SDS011;3276;48.490;9.222;2022-12-17T15:25:48;170.50;;;94.15;;
6485;SDS011;3276;48.490;9.222;2022-12-17T15:28:16;151.05;;;94.97;;
6485;SDS011;3276;48.490;9.222;2022-12-17T15:30:43;168.05;;;114.00;;
6485;SDS011;3276;48.490;9.222;2022-12-17T15:33:09;155.35;;;84.13;;
6485;SDS011;3276;48.490;9.222;2022-12-17T15:35:36;149.25;;;88.85;;
6485;SDS011;3276;48.490;9.222;2022-12-17T15:38:03;153.50;;;85.35;;
6485;SDS011;3276;48.490;9.222;2022-12-17T15:40:29;145.18;;;81.00;;
6485;SDS011;3276;48.490;9.222;2022-12-17T15:42:54;155.77;;;95.50;;
6485;SDS011;3276;48.490;9.222;2022-12-17T15:45:35;161.70;;;88.88;;
6485;SDS011;3276;48.490;9.222;2022-12-17T15:48:09;156.25;;;87.95;;
6485;SDS011;3276;48.490;9.222;2022-12-17T15:50:35;152.65;;;101.90;;
6485;SDS011;3276;48.490;9.222;2022-12-17T15:53:01;147.45;;;91.30;;
6485;SDS011;3276;48.490;9.222;2022-12-17T15:55:27;142.77;;;85.10;;
6485;SDS011;3276;48.490;9.222;2022-12-17T15:57:53;163.60;;;106.17;;
6485;SDS011;3276;48.490;9.222;2022-12-17T16:00:19;157.93;;;81.20;;
6485;SDS011;3276;48.490;9.222;2022-12-17T16:02:45;145.90;;;82.43;;
6485;SDS011;3276;48.490;9.222;2022-12-17T16:05:12;153.98;;;89.72;;
6485;SDS011;3276;48.490;9.222;2022-12-17T16:07:38;153.97;;;83.57;;
6485;SDS011;3276;48.490;9.222;2022-12-17T16:10:04;149.90;;;94.63;;
6485;SDS011;3276;48.490;9.222;2022-12-17T16:12:30;167.85;;;102.90;;
6485;SDS011;3276;48.490;9.222;2022-12-17T16:14:56;137.70;;;88.67;;
6485;SDS011;3276;48.490;9.222;2022-12-17T16:17:22;148.00;;;82.57;;
6485;SDS011;3276;48.490;9.222;2022-12-17T16:19:48;163.87;;;106.60;;
6485;SDS011;3276;48.490;9.222;2022-12-17T16:22:13;158.80;;;82.63;;
6485;SDS011;3276;48.490;9.222;2022-12-17T16:24:39;205.67;;;153.67;;
6485;SDS011;3276;48.490;9.222;2022-12-17T16:27:05;166.93;;;111.53;;
6485;SDS011;3276;48.490;9.222;2022-12-17T16:29:31;170.57;;;94.23;;
6485;SDS011;3276;48.490;9.222;2022-12-17T16:31:56;173.37;;;87.90;;
6485;SDS011;3276;48.490;9.222;2022-12-17T16:34:23;146.13;;;92.05;;
6485;SDS011;3276;48.490;9.222;2022-12-17T16:36:48;185.53;;;131.47;;
6485;SDS011;3276;48.490;9.222;2022-12-17T16:39:15;189.50;;;142.67;;
6485;SDS011;3276;48.490;9.222;2022-12-17T16:41:41;178.13;;;118.13;;
6485;SDS011;3276;48.490;9.222;2022-12-17T16:44:07;196.63;;;138.88;;
6485;SDS011;3276;48.490;9.222;2022-12-17T16:46:39;189.00;;;162.77;;
6485;SDS011;3276;48.490;9.222;2022-12-17T16:49:07;148.93;;;99.38;;
6485;SDS011;3276;48.490;9.222;2022-12-17T16:51:41;176.43;;;93.45;;
6485;SDS011;3276;48.490;9.222;2022-12-17T16:54:08;161.50;;;93.80;;
6485;SDS011;3276;48.490;9.222;2022-12-17T16:56:37;164.68;;;87.80;;
6485;SDS011;3276;48.490;9.222;2022-12-17T16:59:03;171.70;;;90.90;;
6485;SDS011;3276;48.490;9.222;2022-12-17T17:01:29;166.57;;;96.05;;
6485;SDS011;3276;48.490;9.222;2022-12-17T17:03:56;157.68;;;99.68;;
6485;SDS011;3276;48.490;9.222;2022-12-17T17:06:22;146.37;;;89.53;;
6485;SDS011;3276;48.490;9.222;2022-12-17T17:08:48;169.43;;;82.32;;
6485;SDS011;3276;48.490;9.222;2022-12-17T17:11:14;161.97;;;82.70;;